Jonathan — IIQB2 — position and weather

sailwx.info

Track history (hours):
 
Tides and Currents Weather Stations Pressure Air Temp Water Temp Dewpoint Dewpoint Depression Visibility Wind Speed Wind Dir Waves Ship Positions

Jonathan

Last reported at 2017-Nov-24 03:30 UTC. Time now 2017-Nov-24 03:50 UTC.
Position N 38°48' E 002°41'.

Type: Fishing. MMSI: 247305860.

Date/timePositionNaut miles runAvg speedWind from/ knotsBaromVisibWave heightAir tempDewpointWater temp
2017-Nov-24 03:30N 38°48' E 002°41'0 0.8
2017-Nov-24 02:54N 38°48' E 002°40'3 7.4
2017-Nov-24 02:30N 38°50' E 002°38'4 7.6
2017-Nov-24 02:00N 38°53' E 002°35'4 7.7
2017-Nov-24 01:30N 38°56' E 002°32'5 4.8
2017-Nov-24 00:21N 39°01' E 002°30'0 0.8
2017-Nov-23 23:57N 39°02' E 002°31'  
2017-Nov-15 13:58N 39°27' E 002°27'4 7.6
2017-Nov-15 13:30N 39°27' E 002°32'4 8.1
2017-Nov-15 13:00N 39°29' E 002°36'4 8.2
2017-Nov-15 12:30N 39°33' E 002°39'1 2.2
2017-Nov-15 12:00N 39°34' E 002°38'0 0.0
2017-Nov-15 11:30N 39°34' E 002°38'0 0.0
2017-Nov-15 11:00N 39°34' E 002°38'0 0.0
2017-Nov-15 10:30N 39°34' E 002°38'0 0.0
2017-Nov-15 10:00N 39°34' E 002°38'0 0.0
2017-Nov-15 09:30N 39°34' E 002°38'0 0.0
2017-Nov-15 09:00N 39°34' E 002°38'0 0.0
2017-Nov-15 08:30N 39°34' E 002°38'0 0.0
2017-Nov-15 08:00N 39°34' E 002°38'0 0.0
2017-Nov-15 07:30N 39°34' E 002°38'0 0.0
2017-Nov-15 07:00N 39°34' E 002°38'0 0.0
2017-Nov-15 06:30N 39°34' E 002°38'0 0.0
2017-Nov-15 06:00N 39°34' E 002°38'0 0.0
2017-Nov-15 05:30N 39°34' E 002°38'0 0.0
2017-Nov-15 05:00N 39°34' E 002°38'0 0.0
2017-Nov-15 04:30N 39°34' E 002°38'0 0.0
2017-Nov-15 04:00N 39°34' E 002°38'0 0.0
2017-Nov-15 03:30N 39°34' E 002°38'0 0.0
2017-Nov-15 03:00N 39°34' E 002°38'0 0.0
2017-Nov-15 02:30N 39°34' E 002°38'0 0.0
2017-Nov-15 02:00N 39°34' E 002°38'0 0.0
2017-Nov-15 01:30N 39°34' E 002°38'0 0.0
2017-Nov-15 01:00N 39°34' E 002°38'0 0.0
2017-Nov-15 00:30N 39°34' E 002°38'0 0.0
2017-Nov-15 00:00N 39°34' E 002°38'0 0.0
2017-Nov-14 23:30N 39°34' E 002°38'0 0.0
2017-Nov-14 23:00N 39°34' E 002°38'0 0.0
2017-Nov-14 22:30N 39°34' E 002°38'0 0.0
2017-Nov-14 22:00N 39°34' E 002°38'0 0.0
2017-Nov-14 21:30N 39°34' E 002°38'0 0.0
2017-Nov-14 21:00N 39°34' E 002°38'0 0.0
2017-Nov-14 20:30N 39°34' E 002°38'0 0.0
2017-Nov-14 20:00N 39°34' E 002°38'0 0.0
2017-Nov-14 19:30N 39°34' E 002°38'0 0.0
2017-Nov-14 19:00N 39°34' E 002°38'0 0.0
2017-Nov-14 18:30N 39°34' E 002°38'0 0.0
2017-Nov-14 18:00N 39°34' E 002°38'0 0.0
2017-Nov-14 17:30N 39°34' E 002°38'0 0.0
2017-Nov-14 17:00N 39°34' E 002°38'0 0.0
2017-Nov-14 16:30N 39°34' E 002°38'0 0.0
2017-Nov-14 16:00N 39°34' E 002°38'0 0.0
2017-Nov-14 15:30N 39°34' E 002°38'0 0.0
2017-Nov-14 15:00N 39°34' E 002°38'0 0.0
2017-Nov-14 14:30N 39°34' E 002°38'0 0.0
2017-Nov-14 14:00N 39°34' E 002°38'0 0.0
2017-Nov-14 13:30N 39°34' E 002°38'0 0.0
2017-Nov-14 13:00N 39°34' E 002°38'0 0.0
2017-Nov-14 12:30N 39°34' E 002°38'0 0.0
2017-Nov-14 12:00N 39°34' E 002°38'0 0.0
2017-Nov-14 11:30N 39°34' E 002°38'0 0.0
2017-Nov-14 11:00N 39°34' E 002°38'0 0.0
2017-Nov-14 10:30N 39°34' E 002°38'0 0.0
2017-Nov-14 10:00N 39°34' E 002°38'0 0.0
2017-Nov-14 09:30N 39°34' E 002°38'0 0.0
2017-Nov-14 09:00N 39°34' E 002°38'0 0.0
2017-Nov-14 08:30N 39°34' E 002°38'0 0.0
2017-Nov-14 08:00N 39°34' E 002°38'0 0.0
2017-Nov-14 07:30N 39°34' E 002°38'0 0.0
2017-Nov-14 07:00N 39°34' E 002°38'0 0.0
2017-Nov-14 06:30N 39°34' E 002°38'0 0.0
2017-Nov-14 06:00N 39°34' E 002°38'0 0.0
2017-Nov-14 05:30N 39°34' E 002°38'0 0.0
2017-Nov-14 05:00N 39°34' E 002°38'0 0.0
2017-Nov-14 04:30N 39°34' E 002°38'0 0.0
2017-Nov-14 04:00N 39°34' E 002°38'0 0.0
2017-Nov-14 03:30N 39°34' E 002°38'  
Track history (hours):
 
Tides and Currents Weather Stations Pressure Air Temp Water Temp Dewpoint Dewpoint Depression Visibility Wind Speed Wind Dir Waves Ship Positions

Jonathan

Last reported at 2017-Nov-24 03:30 UTC. Time now 2017-Nov-24 03:50 UTC.
Position N 38°48' E 002°41'.

Type: Fishing. MMSI: 247305860.

Date/timePositionNaut miles runAvg speedWind from/ knotsBaromVisibWave heightAir tempDewpointWater temp
2017-Nov-24 03:30N 38°48' E 002°41'0 0.8
2017-Nov-24 02:54N 38°48' E 002°40'3 7.4
2017-Nov-24 02:30N 38°50' E 002°38'4 7.6
2017-Nov-24 02:00N 38°53' E 002°35'4 7.7
2017-Nov-24 01:30N 38°56' E 002°32'5 4.8
2017-Nov-24 00:21N 39°01' E 002°30'0 0.8
2017-Nov-23 23:57N 39°02' E 002°31'  
2017-Nov-15 13:58N 39°27' E 002°27'4 7.6
2017-Nov-15 13:30N 39°27' E 002°32'4 8.1
2017-Nov-15 13:00N 39°29' E 002°36'4 8.2
2017-Nov-15 12:30N 39°33' E 002°39'1 2.2
2017-Nov-15 12:00N 39°34' E 002°38'0 0.0
2017-Nov-15 11:30N 39°34' E 002°38'0 0.0
2017-Nov-15 11:00N 39°34' E 002°38'0 0.0
2017-Nov-15 10:30N 39°34' E 002°38'0 0.0
2017-Nov-15 10:00N 39°34' E 002°38'0 0.0
2017-Nov-15 09:30N 39°34' E 002°38'0 0.0
2017-Nov-15 09:00N 39°34' E 002°38'0 0.0
2017-Nov-15 08:30N 39°34' E 002°38'0 0.0
2017-Nov-15 08:00N 39°34' E 002°38'0 0.0
2017-Nov-15 07:30N 39°34' E 002°38'0 0.0
2017-Nov-15 07:00N 39°34' E 002°38'0 0.0
2017-Nov-15 06:30N 39°34' E 002°38'0 0.0
2017-Nov-15 06:00N 39°34' E 002°38'0 0.0
2017-Nov-15 05:30N 39°34' E 002°38'0 0.0
2017-Nov-15 05:00N 39°34' E 002°38'0 0.0
2017-Nov-15 04:30N 39°34' E 002°38'0 0.0
2017-Nov-15 04:00N 39°34' E 002°38'0 0.0
2017-Nov-15 03:30N 39°34' E 002°38'0 0.0
2017-Nov-15 03:00N 39°34' E 002°38'0 0.0
2017-Nov-15 02:30N 39°34' E 002°38'0 0.0
2017-Nov-15 02:00N 39°34' E 002°38'0 0.0
2017-Nov-15 01:30N 39°34' E 002°38'0 0.0
2017-Nov-15 01:00N 39°34' E 002°38'0 0.0
2017-Nov-15 00:30N 39°34' E 002°38'0 0.0
2017-Nov-15 00:00N 39°34' E 002°38'0 0.0
2017-Nov-14 23:30N 39°34' E 002°38'0 0.0
2017-Nov-14 23:00N 39°34' E 002°38'0 0.0
2017-Nov-14 22:30N 39°34' E 002°38'0 0.0
2017-Nov-14 22:00N 39°34' E 002°38'0 0.0
2017-Nov-14 21:30N 39°34' E 002°38'0 0.0
2017-Nov-14 21:00N 39°34' E 002°38'0 0.0
2017-Nov-14 20:30N 39°34' E 002°38'0 0.0
2017-Nov-14 20:00N 39°34' E 002°38'0 0.0
2017-Nov-14 19:30N 39°34' E 002°38'0 0.0
2017-Nov-14 19:00N 39°34' E 002°38'0 0.0
2017-Nov-14 18:30N 39°34' E 002°38'0 0.0
2017-Nov-14 18:00N 39°34' E 002°38'0 0.0
2017-Nov-14 17:30N 39°34' E 002°38'0 0.0
2017-Nov-14 17:00N 39°34' E 002°38'0 0.0
2017-Nov-14 16:30N 39°34' E 002°38'0 0.0
2017-Nov-14 16:00N 39°34' E 002°38'0 0.0
2017-Nov-14 15:30N 39°34' E 002°38'0 0.0
2017-Nov-14 15:00N 39°34' E 002°38'0 0.0
2017-Nov-14 14:30N 39°34' E 002°38'0 0.0
2017-Nov-14 14:00N 39°34' E 002°38'0 0.0
2017-Nov-14 13:30N 39°34' E 002°38'0 0.0
2017-Nov-14 13:00N 39°34' E 002°38'0 0.0
2017-Nov-14 12:30N 39°34' E 002°38'0 0.0
2017-Nov-14 12:00N 39°34' E 002°38'0 0.0
2017-Nov-14 11:30N 39°34' E 002°38'0 0.0
2017-Nov-14 11:00N 39°34' E 002°38'0 0.0
2017-Nov-14 10:30N 39°34' E 002°38'0 0.0
2017-Nov-14 10:00N 39°34' E 002°38'0 0.0
2017-Nov-14 09:30N 39°34' E 002°38'0 0.0
2017-Nov-14 09:00N 39°34' E 002°38'0 0.0
2017-Nov-14 08:30N 39°34' E 002°38'0 0.0
2017-Nov-14 08:00N 39°34' E 002°38'0 0.0
2017-Nov-14 07:30N 39°34' E 002°38'0 0.0
2017-Nov-14 07:00N 39°34' E 002°38'0 0.0
2017-Nov-14 06:30N 39°34' E 002°38'0 0.0
2017-Nov-14 06:00N 39°34' E 002°38'0 0.0
2017-Nov-14 05:30N 39°34' E 002°38'0 0.0
2017-Nov-14 05:00N 39°34' E 002°38'0 0.0
2017-Nov-14 04:30N 39°34' E 002°38'0 0.0
2017-Nov-14 04:00N 39°34' E 002°38'0 0.0
2017-Nov-14 03:30N 39°34' E 002°38'  

Dump ship's entire track history